Time;durP1;ratioP1;P1;durP2;ratioP2;P2;SDS_P1;SDS_P2;PMS_P1;PMS_P2;Temp;Humidity;BMP_temperature;BMP_pressure;BME280_temperature;BME280_humidity;BME280_pressure;Samples;Min_cycle;Max_cycle;Signal;HPM_P1;HPM_P2
2023/08/10 00:00:51;;;;;;;6.72;2.03;;;14.50;99.90;;;;;;5118367;28;20043;-80
2023/08/10 00:03:16;;;;;;;7.45;2.60;;;14.50;99.90;;;;;;5121082;28;20066;-79
2023/08/10 00:05:42;;;;;;;7.95;2.22;;;14.40;99.90;;;;;;5124930;28;20032;-80
2023/08/10 00:08:08;;;;;;;10.43;2.70;;;14.50;99.90;;;;;;5122315;28;20036;-79
2023/08/10 00:10:33;;;;;;;9.15;2.42;;;14.40;99.90;;;;;;5110801;28;20115;-80
2023/08/10 00:12:59;;;;;;;6.80;2.80;;;14.40;99.90;;;;;;5105292;28;20264;-79
2023/08/10 00:15:25;;;;;;;10.70;2.53;;;14.30;99.90;;;;;;5122452;28;20066;-79
2023/08/10 00:17:50;;;;;;;6.97;2.30;;;14.20;99.90;;;;;;5105869;28;20036;-80
2023/08/10 00:20:17;;;;;;;10.38;2.40;;;14.20;99.90;;;;;;5098337;28;20052;-80
2023/08/10 00:22:42;;;;;;;7.18;2.53;;;14.20;99.90;;;;;;5096329;28;20060;-79
2023/08/10 00:25:08;;;;;;;6.72;2.40;;;14.20;99.90;;;;;;5114792;28;20050;-80
2023/08/10 00:27:37;;;;;;;8.07;2.35;;;14.10;99.90;;;;;;5117238;28;20558;-79
2023/08/10 00:30:04;;;;;;;15.20;2.70;;;14.10;99.90;;;;;;5116026;28;20126;-81
2023/08/10 00:32:29;;;;;;;11.98;2.30;;;14.10;99.90;;;;;;5116343;28;20043;-80
2023/08/10 00:34:55;;;;;;;7.30;2.33;;;14.00;99.90;;;;;;5118000;28;20043;-81
2023/08/10 00:37:20;;;;;;;9.02;2.30;;;14.00;99.90;;;;;;5113368;28;20040;-80
2023/08/10 00:39:46;;;;;;;10.63;2.78;;;14.00;99.90;;;;;;5122669;28;20119;-80
2023/08/10 00:42:12;;;;;;;8.23;2.42;;;14.00;99.90;;;;;;5126765;28;20078;-80
2023/08/10 00:44:39;;;;;;;7.05;2.25;;;14.00;99.90;;;;;;5123155;28;20047;-80
2023/08/10 00:47:06;;;;;;;8.38;1.98;;;14.00;99.90;;;;;;5106271;28;20035;-80
2023/08/10 00:49:31;;;;;;;8.20;2.30;;;14.00;99.90;;;;;;5105743;28;20065;-80
2023/08/10 00:51:57;;;;;;;11.90;2.50;;;14.00;99.90;;;;;;5117129;28;20103;-79
2023/08/10 00:54:23;;;;;;;12.77;3.20;;;14.10;99.90;;;;;;5116527;28;20043;-80
2023/08/10 00:56:50;;;;;;;7.55;2.50;;;14.00;99.90;;;;;;5117899;28;20035;-80
2023/08/10 00:59:17;;;;;;;8.87;2.43;;;14.10;99.90;;;;;;5103286;28;20062;-80
2023/08/10 01:01:44;;;;;;;12.20;2.35;;;14.20;99.90;;;;;;5113677;28;20035;-81
2023/08/10 01:04:10;;;;;;;10.30;2.22;;;14.20;99.90;;;;;;5120849;28;20063;-79
2023/08/10 01:07:13;;;;;;;8.13;2.17;;;14.20;99.90;;;;;;5097857;28;20051;-81
2023/08/10 01:09:51;;;;;;;13.45;2.80;;;14.20;99.90;;;;;;5099098;28;20094;-80
2023/08/10 01:12:25;;;;;;;9.48;2.38;;;14.20;99.90;;;;;;5098529;28;20040;-79
2023/08/10 01:15:06;;;;;;;6.15;2.00;;;14.20;99.90;;;;;;5111927;28;20058;-79
2023/08/10 01:17:40;;;;;;;7.32;2.15;;;14.30;99.90;;;;;;5096408;28;20044;-79
2023/08/10 01:20:08;;;;;;;7.43;2.50;;;14.30;99.90;;;;;;5096325;28;20036;-80
2023/08/10 01:22:53;;;;;;;;;;;14.30;99.90;;;;;;5097552;28;20066;-78
2023/08/10 01:25:20;;;;;;;10.70;2.50;;;14.30;99.90;;;;;;5110440;28;19920;-79
2023/08/10 01:27:45;;;;;;;11.68;2.17;;;14.30;99.90;;;;;;5097532;28;20079;-80
2023/08/10 01:30:12;;;;;;;6.18;2.20;;;14.30;99.90;;;;;;5097540;28;20043;-80
2023/08/10 01:32:40;;;;;;;8.40;2.13;;;14.30;99.90;;;;;;5115300;28;20078;-80
2023/08/10 01:35:06;;;;;;;7.68;2.03;;;14.30;99.90;;;;;;5117106;28;20397;-78
2023/08/10 01:37:33;;;;;;;8.18;2.40;;;14.30;99.90;;;;;;5117828;28;20085;-80
2023/08/10 01:39:59;;;;;;;5.78;2.40;;;14.30;99.90;;;;;;5096639;28;20128;-80
2023/08/10 01:42:25;;;;;;;5.13;2.30;;;14.30;99.90;;;;;;5108995;28;20043;-79
2023/08/10 01:44:52;;;;;;;7.95;2.38;;;14.30;99.90;;;;;;5119356;28;20046;-80
2023/08/10 01:47:28;;;;;;;9.65;2.38;;;14.30;99.90;;;;;;5118508;28;20064;-80
2023/08/10 01:50:01;;;;;;;7.40;2.13;;;14.30;99.90;;;;;;5087411;28;20075;-79
2023/08/10 01:52:37;;;;;;;9.80;2.78;;;14.30;99.90;;;;;;5109493;28;20111;-80
2023/08/10 01:55:05;;;;;;;8.10;2.58;;;14.30;99.90;;;;;;5121917;28;20043;-80
2023/08/10 01:57:31;;;;;;;;;;;14.30;99.90;;;;;;5123944;28;20091;-80
2023/08/10 01:59:58;;;;;;;7.05;2.13;;;14.30;99.90;;;;;;5117571;28;19959;-81
2023/08/10 02:02:25;;;;;;;8.40;2.77;;;14.30;99.90;;;;;;5114475;28;20447;-80
2023/08/10 02:04:51;;;;;;;8.43;2.22;;;14.30;99.90;;;;;;5124594;28;20079;-82
2023/08/10 02:07:17;;;;;;;7.95;2.35;;;14.30;99.90;;;;;;5128565;28;20036;-80
2023/08/10 02:09:42;;;;;;;7.88;2.00;;;14.30;99.90;;;;;;5127103;28;20070;-80
2023/08/10 02:12:08;;;;;;;6.57;2.50;;;14.30;99.90;;;;;;5128289;28;20032;-80
2023/08/10 02:14:34;;;;;;;7.53;2.40;;;14.30;99.90;;;;;;5119600;28;20032;-80
2023/08/10 02:17:00;;;;;;;6.95;1.98;;;14.20;99.90;;;;;;5124483;28;20065;-80
2023/08/10 02:19:25;;;;;;;7.55;2.17;;;14.20;99.90;;;;;;5137076;28;20095;-80
2023/08/10 02:21:51;;;;;;;8.80;2.88;;;14.20;99.90;;;;;;5135758;28;20035;-80
2023/08/10 02:24:17;;;;;;;9.00;2.08;;;14.30;99.90;;;;;;5132248;28;20526;-81
2023/08/10 02:26:42;;;;;;;13.90;3.42;;;14.20;99.90;;;;;;5122906;28;20084;-80
2023/08/10 02:29:08;;;;;;;8.43;3.20;;;14.10;99.90;;;;;;5105579;28;20039;-81
2023/08/10 02:31:34;;;;;;;7.15;2.22;;;14.10;99.90;;;;;;5103241;28;20039;-79
2023/08/10 02:33:59;;;;;;;5.13;2.22;;;14.10;99.90;;;;;;5121223;28;20032;-80
2023/08/10 02:36:25;;;;;;;8.88;2.08;;;14.10;99.90;;;;;;5103318;28;20483;-80
2023/08/10 02:38:50;;;;;;;4.18;1.90;;;14.10;99.90;;;;;;5117548;28;20036;-80
2023/08/10 02:41:16;;;;;;;7.05;2.30;;;14.20;99.90;;;;;;5099844;28;20478;-80
2023/08/10 02:43:42;;;;;;;8.95;2.42;;;14.10;99.90;;;;;;5100316;28;20052;-79
2023/08/10 02:46:08;;;;;;;6.00;1.92;;;14.20;99.90;;;;;;5098983;28;20166;-79
2023/08/10 02:48:34;;;;;;;10.15;2.78;;;14.20;99.90;;;;;;5103029;28;20047;-79
2023/08/10 02:50:59;;;;;;;7.35;2.10;;;14.20;99.90;;;;;;5081867;28;20036;-80
2023/08/10 02:53:25;;;;;;;8.45;2.63;;;14.20;99.90;;;;;;5101970;28;20036;-79
2023/08/10 02:55:51;;;;;;;8.48;2.17;;;14.20;99.90;;;;;;5112748;28;20035;-80
2023/08/10 02:58:16;;;;;;;5.80;2.28;;;14.20;99.90;;;;;;5121927;28;20096;-80
2023/08/10 03:00:42;;;;;;;9.60;2.15;;;14.20;99.90;;;;;;5103116;28;20103;-79
2023/08/10 03:03:08;;;;;;;4.72;1.88;;;14.20;99.90;;;;;;5115775;28;20119;-80
2023/08/10 03:05:34;;;;;;;7.82;2.20;;;14.10;99.90;;;;;;5082628;28;20123;-78
2023/08/10 03:08:00;;;;;;;7.05;2.42;;;14.20;99.90;;;;;;5099218;28;20056;-78
2023/08/10 03:10:26;;;;;;;7.40;2.75;;;14.20;99.90;;;;;;5110195;28;20044;-79
2023/08/10 03:12:51;;;;;;;6.18;2.30;;;14.10;99.90;;;;;;5121967;28;20035;-80
2023/08/10 03:15:17;;;;;;;7.90;2.85;;;14.10;99.90;;;;;;5116049;27;20474;-79
2023/08/10 03:17:44;;;;;;;7.93;2.58;;;14.10;99.90;;;;;;5102789;28;20036;-78
2023/08/10 03:20:16;;;;;;;8.32;3.15;;;14.10;99.90;;;;;;5101536;28;20048;-79
2023/08/10 03:22:43;;;;;;;9.95;2.67;;;14.10;99.90;;;;;;5121931;28;20059;-78
2023/08/10 03:25:09;;;;;;;11.27;2.60;;;14.10;99.90;;;;;;5105341;28;20070;-79
2023/08/10 03:27:35;;;;;;;11.13;2.63;;;14.10;99.90;;;;;;5127725;28;20039;-79
2023/08/10 03:30:01;;;;;;;8.73;2.83;;;14.10;99.90;;;;;;5123137;28;20405;-80
2023/08/10 03:32:27;;;;;;;5.65;2.28;;;14.20;99.90;;;;;;5125533;28;20047;-80
2023/08/10 03:34:53;;;;;;;6.35;2.47;;;14.00;99.90;;;;;;5123348;28;20046;-79
2023/08/10 03:37:18;;;;;;;8.52;2.95;;;14.10;99.90;;;;;;5116377;28;20063;-79
2023/08/10 03:39:44;;;;;;;5.05;2.40;;;14.10;99.90;;;;;;5103476;28;20513;-79
2023/08/10 03:42:10;;;;;;;7.95;2.45;;;14.10;99.90;;;;;;5110957;28;20046;-79
2023/08/10 03:44:35;;;;;;;7.18;2.83;;;14.10;99.90;;;;;;5125177;28;20103;-79
2023/08/10 03:47:01;;;;;;;12.68;2.83;;;14.20;99.90;;;;;;5123941;28;20044;-78
2023/08/10 03:49:27;;;;;;;7.78;2.85;;;14.20;99.90;;;;;;5109714;28;20043;-78
2023/08/10 03:51:53;;;;;;;7.68;2.60;;;14.20;99.90;;;;;;5103031;28;20071;-78
2023/08/10 03:54:19;;;;;;;14.90;3.03;;;14.20;99.90;;;;;;5102454;28;20070;-79
2023/08/10 03:56:44;;;;;;;11.70;2.83;;;13.70;99.90;;;;;;5108142;28;20028;-79
2023/08/10 03:59:10;;;;;;;7.32;2.60;;;14.20;99.90;;;;;;5109281;28;20033;-79
2023/08/10 04:01:36;;;;;;;6.72;2.88;;;14.20;99.90;;;;;;5100606;28;20040;-80
2023/08/10 04:04:02;;;;;;;6.88;2.50;;;14.20;99.90;;;;;;5094201;28;20496;-79
2023/08/10 04:06:28;;;;;;;6.38;2.25;;;14.20;99.90;;;;;;5099789;28;20044;-78
2023/08/10 04:08:54;;;;;;;6.97;2.72;;;14.20;99.90;;;;;;5100100;28;20082;-79
2023/08/10 04:11:19;;;;;;;8.48;2.63;;;14.20;99.90;;;;;;5115788;28;20067;-79
2023/08/10 04:13:46;;;;;;;5.78;2.42;;;14.20;99.90;;;;;;5121537;28;20517;-79
2023/08/10 04:16:12;;;;;;;9.48;2.70;;;14.20;99.90;;;;;;5103766;28;20186;-79
2023/08/10 04:18:40;;;;;;;8.77;2.55;;;14.20;99.90;;;;;;5114871;28;20043;-79
2023/08/10 04:21:06;;;;;;;9.30;3.47;;;14.20;99.90;;;;;;5101782;28;20127;-79
2023/08/10 04:23:32;;;;;;;5.68;2.42;;;14.20;99.90;;;;;;5099142;28;20055;-79
2023/08/10 04:25:57;;;;;;;7.43;2.85;;;14.20;99.90;;;;;;5105668;28;20452;-79
2023/08/10 04:28:24;;;;;;;6.80;3.10;;;14.20;99.90;;;;;;5103493;28;20035;-80
2023/08/10 04:30:49;;;;;;;9.50;2.33;;;14.20;99.90;;;;;;5119015;28;20050;-78
2023/08/10 04:33:15;;;;;;;9.18;2.63;;;14.20;99.90;;;;;;5118300;28;20036;-80
2023/08/10 04:35:41;;;;;;;11.13;2.50;;;14.20;99.90;;;;;;5113842;28;20077;-80
2023/08/10 04:38:06;;;;;;;8.98;2.70;;;14.20;99.90;;;;;;5098850;28;20108;-80
2023/08/10 04:40:32;;;;;;;7.03;2.30;;;14.20;99.90;;;;;;5098505;28;20055;-80
2023/08/10 04:42:59;;;;;;;10.07;2.70;;;14.20;99.90;;;;;;5107075;28;20622;-80
2023/08/10 04:45:25;;;;;;;7.65;2.42;;;14.20;99.90;;;;;;5103748;28;20043;-79
2023/08/10 04:47:51;;;;;;;9.65;3.05;;;14.20;99.90;;;;;;5121543;28;20063;-79
2023/08/10 04:50:17;;;;;;;9.98;2.75;;;14.20;99.90;;;;;;5120345;28;20112;-79
2023/08/10 04:52:43;;;;;;;6.05;2.70;;;14.30;99.90;;;;;;5105230;28;20410;-80
2023/08/10 04:55:10;;;;;;;8.13;2.67;;;14.30;99.90;;;;;;5108908;28;20089;-80
2023/08/10 04:57:37;;;;;;;6.22;2.60;;;14.30;99.90;;;;;;5121753;28;20481;-81
2023/08/10 05:00:09;;;;;;;6.57;2.75;;;14.30;99.90;;;;;;5110385;28;20046;-80
2023/08/10 05:02:35;;;;;;;10.25;2.90;;;14.40;99.90;;;;;;5120765;28;20116;-80
2023/08/10 05:05:01;;;;;;;8.32;3.00;;;14.40;99.90;;;;;;5121905;28;20039;-79
2023/08/10 05:07:28;;;;;;;6.70;2.30;;;14.40;99.90;;;;;;5104577;28;20043;-80
2023/08/10 05:09:55;;;;;;;10.45;3.22;;;14.40;99.90;;;;;;5108476;28;20070;-79
2023/08/10 05:12:21;;;;;;;9.73;2.77;;;14.50;99.90;;;;;;5103593;28;20481;-79
2023/08/10 05:14:47;;;;;;;10.68;3.00;;;14.50;99.90;;;;;;5100821;28;20040;-79
2023/08/10 05:17:14;;;;;;;8.05;2.65;;;14.50;99.90;;;;;;5100591;28;20056;-80
2023/08/10 05:19:40;;;;;;;10.15;2.70;;;14.50;99.90;;;;;;5106758;28;20428;-80
2023/08/10 05:22:05;;;;;;;10.38;3.33;;;14.60;99.90;;;;;;5098890;28;20047;-79
2023/08/10 05:24:32;;;;;;;7.45;3.17;;;14.60;99.90;;;;;;5098409;28;20076;-78
2023/08/10 05:27:00;;;;;;;11.23;3.05;;;14.60;99.90;;;;;;5096308;28;20055;-79
2023/08/10 05:29:26;;;;;;;17.02;3.00;;;14.70;99.90;;;;;;5109852;28;20430;-80
2023/08/10 05:31:52;;;;;;;12.48;3.13;;;14.70;99.90;;;;;;5117934;28;20038;-79
2023/08/10 05:34:17;;;;;;;12.15;2.50;;;14.70;99.90;;;;;;5110126;28;20040;-79
2023/08/10 05:36:43;;;;;;;5.88;2.67;;;14.80;99.90;;;;;;5099158;28;20044;-80
2023/08/10 05:39:09;;;;;;;11.90;2.92;;;14.80;99.90;;;;;;5106955;28;20051;-79
2023/08/10 05:41:35;;;;;;;9.60;3.20;;;14.80;99.90;;;;;;5125456;28;20507;-79
2023/08/10 05:44:00;;;;;;;15.75;4.57;;;14.90;99.90;;;;;;5134218;28;20039;-80
2023/08/10 05:46:26;;;;;;;10.07;2.63;;;15.00;99.90;;;;;;5106602;28;20046;-80
2023/08/10 05:48:52;;;;;;;6.65;2.50;;;14.90;99.90;;;;;;5122800;28;20590;-80
2023/08/10 05:51:18;;;;;;;6.25;2.75;;;15.00;99.90;;;;;;5105963;28;20125;-80
2023/08/10 05:53:44;;;;;;;6.65;2.60;;;15.00;99.90;;;;;;5105455;28;20044;-80
2023/08/10 05:56:10;;;;;;;10.23;2.40;;;15.00;99.90;;;;;;5099776;28;20040;-77
2023/08/10 05:58:36;;;;;;;5.72;2.97;;;15.00;99.90;;;;;;5113770;28;20039;-79
2023/08/10 06:01:03;;;;;;;11.88;2.40;;;15.10;99.90;;;;;;5102285;28;20070;-79
2023/08/10 06:03:29;;;;;;;11.55;2.88;;;15.10;99.90;;;;;;5122144;28;20051;-79
2023/08/10 06:05:55;;;;;;;6.63;2.33;;;15.00;99.90;;;;;;5120463;28;20044;-79
2023/08/10 06:08:22;;;;;;;5.75;2.50;;;15.00;99.90;;;;;;5116276;28;20042;-79
2023/08/10 06:10:50;;;;;;;6.53;3.13;;;15.00;99.90;;;;;;5116952;28;20043;-79
2023/08/10 06:13:18;;;;;;;6.05;2.70;;;15.00;99.90;;;;;;5101365;28;20502;-79
2023/08/10 06:15:46;;;;;;;7.67;2.60;;;15.00;99.90;;;;;;5099892;28;20100;-79
2023/08/10 06:18:13;;;;;;;7.30;2.50;;;14.90;99.90;;;;;;5111060;28;20051;-80
2023/08/10 06:20:41;;;;;;;9.18;3.08;;;14.90;99.90;;;;;;5103499;28;20074;-79
2023/08/10 06:23:07;;;;;;;8.52;2.50;;;15.00;99.90;;;;;;5100837;28;20044;-80
2023/08/10 06:25:33;;;;;;;9.23;2.53;;;15.20;99.90;;;;;;5101913;28;20051;-80
2023/08/10 06:27:59;;;;;;;7.80;2.88;;;15.30;99.90;;;;;;5123492;28;20040;-80
2023/08/10 06:30:25;;;;;;;6.10;2.70;;;15.60;99.90;;;;;;5127205;28;20119;-80
2023/08/10 06:32:51;;;;;;;9.27;3.03;;;15.80;99.90;;;;;;5109415;28;20044;-80
2023/08/10 06:35:20;;;;;;;9.40;2.55;;;16.00;99.90;;;;;;5117227;28;20039;-79
2023/08/10 06:37:48;;;;;;;9.13;2.75;;;16.30;99.90;;;;;;5124008;28;20039;-79
2023/08/10 06:40:15;;;;;;;8.45;2.60;;;16.70;99.90;;;;;;5129149;28;20039;-79
2023/08/10 06:42:41;;;;;;;12.83;2.20;;;17.10;99.90;;;;;;5119949;28;20052;-80
2023/08/10 06:45:08;;;;;;;6.80;2.42;;;17.60;99.90;;;;;;5120759;28;20103;-80
2023/08/10 06:47:34;;;;;;;6.88;2.50;;;18.00;99.90;;;;;;5130318;28;20044;-80
2023/08/10 06:50:00;;;;;;;11.05;2.50;;;18.30;99.90;;;;;;5129043;28;20050;-80
2023/08/10 06:52:26;;;;;;;9.57;2.70;;;18.40;99.90;;;;;;5121475;28;20044;-79
2023/08/10 06:54:56;;;;;;;12.55;2.38;;;18.30;99.90;;;;;;5111193;28;20051;-80
2023/08/10 06:57:22;;;;;;;7.07;2.08;;;18.50;99.90;;;;;;5121792;28;20047;-79
2023/08/10 06:59:48;;;;;;;8.90;2.28;;;18.40;99.90;;;;;;5120950;28;20048;-79
2023/08/10 07:02:16;;;;;;;9.98;2.30;;;18.40;99.90;;;;;;5107380;28;20032;-80
2023/08/10 07:04:43;;;;;;;6.60;1.95;;;18.40;99.90;;;;;;5109202;28;20044;-79
2023/08/10 07:07:10;;;;;;;7.80;2.17;;;18.50;99.90;;;;;;5107692;28;20496;-79
2023/08/10 07:09:36;;;;;;;10.45;1.80;;;18.50;99.90;;;;;;5102838;28;20044;-79
2023/08/10 07:12:03;;;;;;;7.95;1.90;;;18.50;99.90;;;;;;5118799;28;20075;-79
2023/08/10 07:14:29;;;;;;;5.20;1.50;;;18.50;99.90;;;;;;5122916;28;20039;-77
2023/08/10 07:16:55;;;;;;;8.00;1.85;;;18.50;99.90;;;;;;5118704;28;20036;-79
2023/08/10 07:19:20;;;;;;;10.98;2.13;;;18.40;99.90;;;;;;5110810;28;20039;-78
2023/08/10 07:21:47;;;;;;;7.20;1.75;;;18.50;99.90;;;;;;5102867;28;20047;-78
2023/08/10 07:24:13;;;;;;;6.40;1.53;;;18.50;99.90;;;;;;5120320;28;20063;-79
2023/08/10 07:26:39;;;;;;;8.55;1.88;;;18.60;99.90;;;;;;5118563;28;20278;-79
2023/08/10 07:29:05;;;;;;;5.80;1.90;;;18.60;99.90;;;;;;5100521;28;20440;-79
2023/08/10 07:31:33;;;;;;;8.43;2.20;;;18.60;99.90;;;;;;5110386;28;20040;-78
2023/08/10 07:33:59;;;;;;;5.18;1.75;;;18.70;99.90;;;;;;5117583;28;20039;-78
2023/08/10 07:36:25;;;;;;;7.82;1.77;;;18.80;99.90;;;;;;5122362;28;20067;-79
2023/08/10 07:38:52;;;;;;;10.50;2.03;;;18.80;99.90;;;;;;5123469;28;20028;-80
2023/08/10 07:41:17;;;;;;;7.35;1.48;;;18.90;99.90;;;;;;5127227;28;20039;-80
2023/08/10 07:43:43;;;;;;;7.35;1.90;;;18.90;99.90;;;;;;5125334;28;20054;-80
2023/08/10 07:46:09;;;;;;;9.93;2.55;;;19.00;99.90;;;;;;5108261;28;20039;-80
2023/08/10 07:48:34;;;;;;;12.85;2.40;;;19.10;99.90;;;;;;5115791;28;20050;-79
2023/08/10 07:51:00;;;;;;;8.05;1.80;;;19.30;99.90;;;;;;5122471;28;20074;-80
2023/08/10 07:53:28;;;;;;;8.85;1.83;;;19.40;99.90;;;;;;5120779;28;20504;-79
2023/08/10 07:55:54;;;;;;;;;;;19.40;99.90;;;;;;5121793;28;20481;-79
2023/08/10 07:58:20;;;;;;;5.55;1.98;;;19.40;99.90;;;;;;5106034;28;19924;-80
2023/08/10 08:00:46;;;;;;;5.15;1.50;;;19.50;99.90;;;;;;5115634;28;20036;-79
2023/08/10 08:03:12;;;;;;;5.63;2.05;;;19.60;99.90;;;;;;5103213;28;20096;-80
2023/08/10 08:05:40;;;;;;;9.40;1.75;;;19.70;99.90;;;;;;5120208;28;20052;-81
2023/08/10 08:08:06;;;;;;;10.65;2.00;;;19.70;99.90;;;;;;5122740;28;20054;-79
2023/08/10 08:10:35;;;;;;;6.30;1.65;;;19.70;99.90;;;;;;5121702;28;20043;-80
2023/08/10 08:13:03;;;;;;;5.75;1.70;;;19.60;99.90;;;;;;5120752;28;20035;-79
2023/08/10 08:15:29;;;;;;;9.27;1.92;;;19.50;99.90;;;;;;5106886;28;20497;-79
2023/08/10 08:18:34;;;;;;;6.68;1.70;;;19.40;99.90;;;;;;5098363;28;20078;-77
2023/08/10 08:21:00;;;;;;;7.10;1.50;;;19.30;99.90;;;;;;5115921;28;20127;-80
2023/08/10 08:23:25;;;;;;;8.25;1.75;;;19.30;99.90;;;;;;5110856;28;20075;-79
2023/08/10 08:25:51;;;;;;;7.63;1.98;;;19.30;99.90;;;;;;5096082;28;20059;-78
2023/08/10 08:28:17;;;;;;;6.78;1.77;;;19.30;99.90;;;;;;5098128;28;20067;-79
2023/08/10 08:30:42;;;;;;;7.90;1.65;;;19.20;99.90;;;;;;5104519;28;20043;-79
2023/08/10 08:33:09;;;;;;;6.97;1.73;;;19.10;99.90;;;;;;5118552;28;20558;-79
2023/08/10 08:35:35;;;;;;;5.00;1.58;;;19.00;99.90;;;;;;5110232;28;20043;-80
2023/08/10 08:38:00;;;;;;;7.57;1.83;;;19.00;99.90;;;;;;5116155;28;20537;-80
2023/08/10 08:40:27;;;;;;;6.72;1.52;;;19.00;99.90;;;;;;5118950;28;20398;-79
2023/08/10 08:42:53;;;;;;;11.50;2.53;;;19.00;99.90;;;;;;5116295;28;20032;-80
2023/08/10 08:45:19;;;;;;;10.00;1.25;;;19.00;99.90;;;;;;5117769;28;20050;-80
2023/08/10 08:47:45;;;;;;;5.45;1.55;;;19.00;99.90;;;;;;5099043;28;20401;-80
2023/08/10 08:50:12;;;;;;;7.53;1.98;;;19.00;99.90;;;;;;5095305;28;20066;-79
2023/08/10 08:52:40;;;;;;;6.35;1.50;;;19.00;99.90;;;;;;5114134;28;20092;-80
2023/08/10 08:55:07;;;;;;;6.88;1.58;;;18.90;99.90;;;;;;5115325;28;20035;-79
2023/08/10 08:57:33;;;;;;;6.47;1.75;;;19.00;99.90;;;;;;5114642;28;20055;-78
2023/08/10 08:59:59;;;;;;;7.70;1.58;;;18.90;99.90;;;;;;5117894;28;20531;-79
2023/08/10 09:02:25;;;;;;;6.25;1.58;;;19.00;99.90;;;;;;5117300;28;20040;-78
2023/08/10 09:04:52;;;;;;;5.82;1.63;;;18.90;99.90;;;;;;5103475;28;20074;-80
2023/08/10 09:07:17;;;;;;;5.93;2.00;;;18.90;99.90;;;;;;5102174;28;20043;-78
2023/08/10 09:09:43;;;;;;;5.25;1.40;;;18.90;99.90;;;;;;5117651;28;20035;-79
2023/08/10 09:12:29;;;;;;;5.35;1.50;;;18.90;99.90;;;;;;5120467;28;20065;-79
2023/08/10 09:15:13;;;;;;;4.30;1.40;;;19.00;99.90;;;;;;5103264;27;20047;-79
2023/08/10 09:17:52;;;;;;;7.80;1.58;;;19.00;99.90;;;;;;5090480;28;20058;-79
2023/08/10 09:20:19;;;;;;;8.90;1.65;;;19.10;99.90;;;;;;5121464;28;20412;-79
2023/08/10 09:22:46;;;;;;;7.93;1.52;;;19.10;99.90;;;;;;5104360;28;20055;-79
2023/08/10 09:25:12;;;;;;;4.80;1.40;;;19.20;99.90;;;;;;5104060;28;20044;-79
2023/08/10 09:27:38;;;;;;;6.88;1.67;;;19.20;99.90;;;;;;5110503;28;20492;-79
2023/08/10 09:30:08;;;;;;;5.18;1.80;;;19.30;99.90;;;;;;5115244;28;20089;-79
2023/08/10 09:32:35;;;;;;;5.38;1.52;;;19.30;99.90;;;;;;5121209;28;20076;-79
2023/08/10 09:35:01;;;;;;;5.35;1.77;;;19.40;99.90;;;;;;5106917;28;20044;-79
2023/08/10 09:37:27;;;;;;;5.15;1.20;;;19.40;99.90;;;;;;5122048;28;20039;-79
2023/08/10 09:39:57;;;;;;;7.40;1.20;;;19.40;99.90;;;;;;5122258;28;20462;-80
2023/08/10 09:42:24;;;;;;;4.63;1.40;;;19.40;99.90;;;;;;5113036;28;20493;-78
2023/08/10 09:44:51;;;;;;;3.75;1.40;;;19.50;99.90;;;;;;5116231;28;20043;-78
2023/08/10 09:47:18;;;;;;;7.55;1.85;;;19.50;99.90;;;;;;5119460;28;20043;-78
2023/08/10 09:49:56;;;;;;;5.88;1.30;;;19.60;99.90;;;;;;5098005;28;20051;-79
2023/08/10 09:52:23;;;;;;;4.20;1.77;;;19.70;99.90;;;;;;5098194;28;20043;-78
2023/08/10 09:54:50;;;;;;;5.38;1.45;;;19.70;99.90;;;;;;5107663;28;20032;-80
2023/08/10 09:57:18;;;;;;;4.20;1.33;;;19.80;99.90;;;;;;5121710;28;20044;-79
2023/08/10 09:59:47;;;;;;;1.80;1.38;;;19.80;99.90;;;;;;5102929;28;20044;-79
2023/08/10 10:02:15;;;;;;;6.82;1.70;;;19.80;99.90;;;;;;5101114;28;20043;-79
2023/08/10 10:04:44;;;;;;;11.45;2.10;;;19.80;99.90;;;;;;5111097;28;20036;-79
2023/08/10 10:07:12;;;;;;;5.25;1.50;;;19.70;99.90;;;;;;5121702;28;20075;-79
2023/08/10 10:09:39;;;;;;;6.35;1.50;;;19.70;99.90;;;;;;5120403;28;20039;-79
2023/08/10 10:12:10;;;;;;;;;;;19.80;99.90;;;;;;5098578;28;20036;-79
2023/08/10 10:14:39;;;;;;;4.38;1.30;;;19.70;99.90;;;;;;5103202;28;20402;-80
2023/08/10 10:17:06;;;;;;;4.80;1.30;;;19.70;99.90;;;;;;5099918;28;20047;-78
2023/08/10 10:19:32;;;;;;;4.35;1.30;;;19.70;99.90;;;;;;5099597;28;20044;-78
2023/08/10 10:22:00;;;;;;;4.88;1.40;;;19.80;99.90;;;;;;5112037;28;20048;-79
2023/08/10 10:24:31;;;;;;;6.00;2.13;;;19.80;99.90;;;;;;5098319;28;20066;-79
2023/08/10 10:27:11;;;;;;;4.03;1.60;;;19.80;99.90;;;;;;5106952;28;20036;-79
2023/08/10 10:29:56;;;;;;;4.20;1.50;;;19.90;99.90;;;;;;5117260;28;20070;-79
2023/08/10 10:32:23;;;;;;;4.47;1.40;;;19.90;99.90;;;;;;5113125;28;20305;-79
2023/08/10 10:34:51;;;;;;;6.93;1.67;;;19.80;99.90;;;;;;5083048;28;20044;-78
2023/08/10 10:37:30;;;;;;;3.70;1.40;;;19.90;99.90;;;;;;5120758;28;20039;-78
2023/08/10 10:40:18;;;;;;;3.13;1.33;;;19.90;99.90;;;;;;5123660;28;20105;-79
2023/08/10 10:43:03;;;;;;;7.10;1.80;;;19.80;99.90;;;;;;5104568;28;20076;-79
2023/08/10 10:45:43;;;;;;;4.38;1.50;;;19.70;99.90;;;;;;5102982;28;20054;-79
2023/08/10 10:48:12;;;;;;;6.40;1.65;;;19.70;99.90;;;;;;5105066;28;20502;-78
2023/08/10 10:50:38;;;;;;;5.90;1.83;;;19.70;99.90;;;;;;5116934;28;20047;-79
2023/08/10 10:53:11;;;;;;;5.25;1.30;;;19.80;99.90;;;;;;5116326;28;20062;-80
2023/08/10 10:55:42;;;;;;;4.20;1.30;;;19.80;99.90;;;;;;5115431;28;20035;-79
2023/08/10 10:58:13;;;;;;;4.25;1.42;;;19.90;99.90;;;;;;5122017;28;20055;-80
2023/08/10 11:00:40;;;;;;;5.68;1.75;;;20.10;99.90;;;;;;5101841;28;20070;-79
2023/08/10 11:03:08;;;;;;;4.45;1.45;;;20.20;99.90;;;;;;5097630;28;20048;-76
2023/08/10 11:05:35;;;;;;;7.63;1.52;;;20.40;99.90;;;;;;5109832;28;20098;-79
2023/08/10 11:08:05;;;;;;;6.78;1.42;;;20.70;99.90;;;;;;5116591;28;20047;-78
2023/08/10 11:10:43;;;;;;;4.65;1.40;;;20.90;99.90;;;;;;5121608;28;20046;-79
2023/08/10 11:13:10;;;;;;;6.68;1.63;;;21.00;99.90;;;;;;5119154;28;20047;-80
2023/08/10 11:15:36;;;;;;;6.47;1.42;;;21.00;99.90;;;;;;5118621;28;20435;-79
2023/08/10 11:18:10;;;;;;;3.53;1.40;;;20.90;99.90;;;;;;5124035;28;20039;-79
2023/08/10 11:20:42;;;;;;;6.20;1.50;;;21.00;99.90;;;;;;5102755;28;20151;-80
2023/08/10 11:23:07;;;;;;;3.55;1.60;;;21.20;99.90;;;;;;5119281;28;20054;-79
2023/08/10 11:25:33;;;;;;;6.60;2.10;;;21.30;99.90;;;;;;5100456;28;20087;-80
2023/08/10 11:27:59;;;;;;;4.93;1.50;;;21.30;99.90;;;;;;5116496;28;20044;-79
2023/08/10 11:30:26;;;;;;;3.15;1.45;;;21.30;99.90;;;;;;5121898;28;20039;-80
2023/08/10 11:32:54;;;;;;;2.92;1.52;;;21.20;99.90;;;;;;5120954;28;20140;-79
2023/08/10 11:35:22;;;;;;;5.38;1.60;;;21.20;99.90;;;;;;5116057;28;20063;-76
2023/08/10 11:37:50;;;;;;;5.70;1.90;;;21.20;99.90;;;;;;5110137;28;20100;-78
2023/08/10 11:40:18;;;;;;;7.38;1.65;;;21.00;99.90;;;;;;5098694;28;20040;-78
2023/08/10 11:43:14;;;;;;;;;;;20.90;99.90;;;;;;5098855;28;20529;-77
2023/08/10 11:45:42;;;;;;;8.23;1.92;;;20.90;99.90;;;;;;5117280;28;20426;-77
2023/08/10 11:48:15;;;;;;;3.75;1.50;;;20.90;99.90;;;;;;5114713;28;20044;-79
2023/08/10 11:50:43;;;;;;;6.13;2.00;;;21.00;99.90;;;;;;5108877;28;20091;-80
2023/08/10 11:53:11;;;;;;;8.65;1.85;;;20.80;99.90;;;;;;5121348;28;20040;-79
2023/08/10 11:55:42;;;;;;;4.70;1.50;;;20.80;99.90;;;;;;5103676;28;20394;-79
2023/08/10 11:58:08;;;;;;;7.63;2.00;;;20.80;99.90;;;;;;5120041;28;20498;-78
2023/08/10 12:00:34;;;;;;;5.60;2.50;;;20.70;99.90;;;;;;5120761;28;20043;-79
2023/08/10 12:03:02;;;;;;;5.78;1.92;;;20.80;99.90;;;;;;5117466;28;20047;-79
2023/08/10 12:05:51;;;;;;;7.60;1.75;;;20.80;99.90;;;;;;5101899;28;20050;-79
2023/08/10 12:08:20;;;;;;;5.97;1.85;;;20.80;99.90;;;;;;5117886;27;20054;-79
2023/08/10 12:10:51;;;;;;;4.25;1.73;;;20.80;99.90;;;;;;5118247;28;20383;-79
2023/08/10 12:13:19;;;;;;;4.07;1.63;;;20.80;99.90;;;;;;5116604;28;20071;-79
2023/08/10 12:15:53;;;;;;;6.97;1.73;;;20.70;99.90;;;;;;5118071;28;20043;-79
2023/08/10 12:18:21;;;;;;;8.30;1.90;;;20.80;99.90;;;;;;5088521;28;20036;-78
2023/08/10 12:20:52;;;;;;;7.78;2.22;;;20.70;99.90;;;;;;5103277;28;20089;-78
2023/08/10 12:23:20;;;;;;;5.25;1.77;;;20.70;99.90;;;;;;5118175;28;20060;-78
2023/08/10 12:25:50;;;;;;;6.93;2.15;;;20.70;99.90;;;;;;5098818;28;20054;-78
2023/08/10 12:28:17;;;;;;;3.38;1.67;;;20.70;99.90;;;;;;5116934;28;20095;-79
2023/08/10 12:30:44;;;;;;;4.72;1.83;;;20.60;99.90;;;;;;5106110;28;20110;-79
2023/08/10 12:33:11;;;;;;;4.20;1.83;;;20.60;99.90;;;;;;5116315;28;20069;-78
2023/08/10 12:35:40;;;;;;;6.05;2.05;;;20.50;99.90;;;;;;5104206;27;20047;-79
2023/08/10 12:38:07;;;;;;;7.03;2.10;;;20.40;99.90;;;;;;5099429;28;20039;-79
2023/08/10 12:40:33;;;;;;;6.18;2.00;;;20.40;99.90;;;;;;5097728;28;20150;-78
2023/08/10 12:42:59;;;;;;;9.80;2.42;;;20.30;99.90;;;;;;5116885;28;20073;-78
2023/08/10 12:45:25;;;;;;;8.05;2.50;;;20.30;99.90;;;;;;5115971;28;20096;-78
2023/08/10 12:47:52;;;;;;;5.13;2.15;;;20.20;99.90;;;;;;5097313;28;20036;-79